Time;durP1;ratioP1;P1;durP2;ratioP2;P2;SDS_P1;SDS_P2;PMS_P1;PMS_P2;Temp;Humidity;BMP_temperature;BMP_pressure;BME280_temperature;BME280_humidity;BME280_pressure;Samples;Min_cycle;Max_cycle;Signal;HPM_P1;HPM_P2
2023/04/18 00:01:22;;;;;;;;;;;;;;;-140.72;100.00;52912.38;5028491;28;19921;-70
2023/04/18 00:03:49;;;;;;;;;;;;;;;-140.72;100.00;52930.66;5030554;28;19921;-70
2023/04/18 00:06:14;;;;;;;;;;;;;;;-140.72;100.00;52928.63;5023257;28;19925;-70
2023/04/18 00:08:50;;;;;;;;;;;;;;;-140.72;100.00;52863.66;5028478;28;19924;-70
2023/04/18 00:11:15;;;;;;;;;;;;;;;-140.72;100.00;52916.44;5021319;28;19925;-70
2023/04/18 00:13:40;;;;;;;;;;;;;;;-140.72;100.00;52942.81;5025027;28;20355;-70
2023/04/18 00:16:13;;;;;;;;;;;;;;;-140.72;100.00;52918.47;5012445;28;20394;-70
2023/04/18 00:18:39;;;;;;;;;;;;;;;-140.72;100.00;52908.31;5025026;28;19917;-70
2023/04/18 00:21:05;;;;;;;;;;;;;;;-140.72;100.00;52938.75;5020851;28;20371;-70
2023/04/18 00:23:32;;;;;;;;;;;;;;;-140.72;100.00;52912.38;5024062;28;19971;-70
2023/04/18 00:25:57;;;;;;;;;;;;;;;-140.72;100.00;52910.34;5028616;28;20332;-70
2023/04/18 00:28:23;;;;;;;;;;;;;;;-140.72;100.00;52918.47;5029758;28;19921;-70
2023/04/18 00:31:00;;;;;;;;;;;;;;;-140.72;100.00;52881.94;5029948;28;20294;-70
2023/04/18 00:33:25;;;;;;;;;;;;;;;-140.72;100.00;52946.88;5024278;28;19917;-69
2023/04/18 00:36:09;;;;;;;;;;;;;;;-140.72;100.00;52940.78;5011279;28;19918;-69
2023/04/18 00:38:34;;;;;;;;;;;;;;;-140.72;100.00;52932.66;5028856;28;19922;-69
2023/04/18 00:40:59;;;;;;;;;;;;;;;-140.72;100.00;52918.47;5024173;28;19917;-69
2023/04/18 00:43:36;;;;;;;;;;;;;;;-140.72;100.00;52922.53;5018984;28;20372;-70
2023/04/18 00:46:01;;;;;;;;;;;;;;;-140.72;100.00;52944.84;5028845;28;19917;-69
2023/04/18 00:48:26;;;;;;;;;;;;;;;-140.72;100.00;52940.78;5024929;28;20054;-70
2023/04/18 00:50:52;;;;;;;;;;;;;;;-140.72;100.00;52910.34;5029894;28;20299;-70
2023/04/18 00:53:17;;;;;;;;;;;;;;;-140.72;100.00;52971.22;5037571;27;19925;-72
2023/04/18 00:55:42;;;;;;;;;;;;;;;-140.72;100.00;52916.44;5032463;27;19917;-70
2023/04/18 00:58:08;;;;;;;;;;;;;;;-140.72;100.00;52938.75;5028788;28;20004;-70
2023/04/18 01:00:33;;;;;;;;;;;;;;;-140.72;100.00;52926.59;5027503;28;19957;-70
2023/04/18 01:02:58;;;;;;;;;;;;;;;-140.72;100.00;52959.06;5031837;28;19921;-70
2023/04/18 01:05:24;;;;;;;;;;;;;;;-140.72;100.00;52981.38;5033293;28;19917;-70
2023/04/18 01:07:49;;;;;;;;;;;;;;;-140.72;100.00;52963.13;5032959;28;19917;-70
2023/04/18 01:10:14;;;;;;;;;;;;;;;-140.72;100.00;52920.50;5027513;28;19921;-70
2023/04/18 01:12:40;;;;;;;;;;;;;;;-140.72;100.00;52987.47;5023233;28;19960;-70
2023/04/18 01:15:06;;;;;;;;;;;;;;;-140.72;100.00;52926.59;5028039;28;20406;-70
2023/04/18 01:17:34;;;;;;;;;;;;;;;-140.72;100.00;52967.16;5029709;28;19921;-70
2023/04/18 01:20:05;;;;;;;;;;;;;;;-140.72;100.00;52942.81;5015926;28;20028;-70
2023/04/18 01:22:30;;;;;;;;;;;;;;;-140.72;100.00;52979.34;5024452;28;19929;-70
2023/04/18 01:24:56;;;;;;;;;;;;;;;-140.72;100.00;52975.28;5015470;28;20299;-70
2023/04/18 01:27:21;;;;;;;;;;;;;;;-140.72;100.00;52950.94;5025454;28;20008;-70
2023/04/18 01:29:46;;;;;;;;;;;;;;;-140.72;100.00;52922.53;5027650;27;19918;-70
2023/04/18 01:32:12;;;;;;;;;;;;;;;-140.72;100.00;52938.75;5041326;28;19917;-70
2023/04/18 01:34:37;;;;;;;;;;;;;;;-140.72;100.00;52967.16;5032536;28;19927;-70
2023/04/18 01:37:02;;;;;;;;;;;;;;;-140.72;100.00;52930.66;5032560;28;19925;-70
2023/04/18 01:39:27;;;;;;;;;;;;;;;-140.72;100.00;52934.69;5024087;28;19917;-70
2023/04/18 01:41:52;;;;;;;;;;;;;;;-140.72;100.00;52906.28;5032506;28;19995;-70
2023/04/18 01:44:18;;;;;;;;;;;;;;;-140.72;100.00;52973.25;5027367;28;19977;-70
2023/04/18 01:46:43;;;;;;;;;;;;;;;-140.72;100.00;52932.66;5032260;28;19971;-70
2023/04/18 01:49:08;;;;;;;;;;;;;;;-140.72;100.00;52965.16;5032160;28;20360;-70
2023/04/18 01:51:34;;;;;;;;;;;;;;;-140.72;100.00;52942.81;5032510;28;20327;-70
2023/04/18 01:57:02;;;;;;;;;;;;;;;-140.72;100.00;52967.16;5027040;28;19943;-70
2023/04/18 01:59:27;;;;;;;;;;;;;;;-140.72;100.00;52946.88;5023703;28;20426;-70
2023/04/18 02:01:53;;;;;;;;;;;;;;;-140.72;100.00;52965.16;5031781;28;19921;-70
2023/04/18 02:04:18;;;;;;;;;;;;;;;-140.72;100.00;52975.28;5032517;28;20316;-70
2023/04/18 02:06:43;;;;;;;;;;;;;;;-140.72;100.00;52928.63;5033229;28;19940;-70
2023/04/18 02:09:09;;;;;;;;;;;;;;;-140.72;100.00;52971.22;5030990;28;19956;-70
2023/04/18 02:11:34;;;;;;;;;;;;;;;-140.72;100.00;52963.13;5032809;28;19928;-70
2023/04/18 02:14:00;;;;;;;;;;;;;;;-140.72;100.00;52950.94;5033596;27;20386;-70
2023/04/18 02:16:25;;;;;;;;;;;;;;;-140.72;100.00;52952.97;5035090;28;19921;-69
2023/04/18 02:18:51;;;;;;;;;;;;;;;-140.72;100.00;52963.13;5034163;28;20275;-69
2023/04/18 02:21:16;;;;;;;;;;;;;;;-140.72;100.00;52934.69;5034379;28;20012;-69
2023/04/18 02:23:41;;;;;;;;;;;;;;;-140.72;100.00;52944.84;5031369;28;20378;-69
2023/04/18 02:26:07;;;;;;;;;;;;;;;-140.72;100.00;52985.44;5029469;28;19917;-69
2023/04/18 02:28:32;;;;;;;;;;;;;;;-140.72;100.00;52938.75;5036365;28;19929;-69
2023/04/18 02:30:58;;;;;;;;;;;;;;;-140.72;100.00;52971.22;5031109;28;19918;-69
2023/04/18 02:33:23;;;;;;;;;;;;;;;-140.72;100.00;52944.84;5039222;28;19923;-70
2023/04/18 02:35:49;;;;;;;;;;;;;;;-140.72;100.00;52942.81;5022753;28;20283;-69
2023/04/18 02:38:14;;;;;;;;;;;;;;;-140.72;100.00;52946.88;5025157;28;19936;-70
2023/04/18 02:40:39;;;;;;;;;;;;;;;-140.72;100.00;52971.22;5018793;27;19928;-70
2023/04/18 02:43:05;;;;;;;;;;;;;;;-140.72;100.00;52955.00;5043718;28;19952;-69
2023/04/18 02:45:31;;;;;;;;;;;;;;;-140.72;100.00;52946.88;5030320;28;20313;-70
2023/04/18 02:47:56;;;;;;;;;;;;;;;-140.72;100.00;52934.69;5030789;28;20012;-70
2023/04/18 02:50:22;;;;;;;;;;;;;;;-140.72;100.00;52922.53;5029640;28;20358;-69
2023/04/18 02:52:47;;;;;;;;;;;;;;;-140.72;100.00;52975.28;5030935;28;20295;-69
2023/04/18 02:55:12;;;;;;;;;;;;;;;-140.72;100.00;52991.53;5031579;28;19943;-69
2023/04/18 02:57:37;;;;;;;;;;;;;;;-140.72;100.00;52942.81;5029080;28;19986;-69
2023/04/18 03:00:05;;;;;;;;;;;;;;;-140.72;100.00;52944.84;5031350;28;19939;-70
2023/04/18 03:02:30;;;;;;;;;;;;;;;-140.72;100.00;52950.94;5025876;28;20004;-69
2023/04/18 03:04:55;;;;;;;;;;;;;;;-140.72;100.00;52912.38;5033255;28;19928;-69
2023/04/18 03:07:20;;;;;;;;;;;;;;;-140.72;100.00;52979.34;5026935;28;19960;-70
2023/04/18 03:09:46;;;;;;;;;;;;;;;-140.72;100.00;52950.94;5026304;28;19917;-69
2023/04/18 03:12:11;;;;;;;;;;;;;;;-140.72;100.00;52967.16;5029780;28;19932;-69
2023/04/18 03:14:36;;;;;;;;;;;;;;;-140.72;100.00;52981.38;5035348;28;20044;-70
2023/04/18 03:17:13;;;;;;;;;;;;;;;-140.72;100.00;52950.94;5026515;28;19917;-69
2023/04/18 03:19:38;;;;;;;;;;;;;;;-140.72;100.00;52979.34;5031331;28;19928;-70
2023/04/18 03:22:05;;;;;;;;;;;;;;;-140.72;100.00;53011.81;5028193;28;19918;-69
2023/04/18 03:24:30;;;;;;;;;;;;;;;-140.72;100.00;52952.97;5030647;28;19921;-69
2023/04/18 03:26:55;;;;;;;;;;;;;;;-140.72;100.00;52971.22;5030156;28;19923;-69
2023/04/18 03:29:20;;;;;;;;;;;;;;;-140.72;100.00;52948.91;5031501;28;20176;-69
2023/04/18 03:31:46;;;;;;;;;;;;;;;-140.72;100.00;52969.19;5024536;28;20388;-69
2023/04/18 03:34:11;;;;;;;;;;;;;;;-140.72;100.00;52959.06;5027267;28;19936;-70
2023/04/18 03:36:36;;;;;;;;;;;;;;;-140.72;100.00;52926.59;5043654;27;20382;-70
2023/04/18 03:39:02;;;;;;;;;;;;;;;-140.72;100.00;52955.00;5060305;27;19921;-69
2023/04/18 03:41:27;;;;;;;;;;;;;;;-140.72;100.00;52942.81;5028700;28;19967;-70
2023/04/18 03:43:52;;;;;;;;;;;;;;;-140.72;100.00;52942.81;5021430;28;19917;-70
2023/04/18 03:46:18;;;;;;;;;;;;;;;-140.72;100.00;52967.16;5018285;28;20351;-70
2023/04/18 03:48:55;;;;;;;;;;;;;;;-140.72;100.00;52918.47;5026403;28;20417;-70
2023/04/18 03:51:20;;;;;;;;;;;;;;;-140.72;100.00;52955.00;5029259;28;19917;-70
2023/04/18 03:53:59;;;;;;;;;;;;;;;-140.72;100.00;52959.06;5030146;28;20323;-70
2023/04/18 03:56:26;;;;;;;;;;;;;;;-140.72;100.00;52985.44;5017697;28;19944;-70
2023/04/18 03:58:52;;;;;;;;;;;;;;;-140.72;100.00;52965.16;5040110;28;19925;-70
2023/04/18 04:01:17;;;;;;;;;;;;;;;-140.72;100.00;52955.00;5023455;28;19928;-70
2023/04/18 04:03:42;;;;;;;;;;;;;;;-140.72;100.00;52934.69;5022085;28;19921;-70
2023/04/18 04:06:07;;;;;;;;;;;;;;;-140.72;100.00;52950.94;5037399;28;20008;-70
2023/04/18 04:08:33;;;;;;;;;;;;;;;-140.72;100.00;52932.66;5026456;28;19917;-70
2023/04/18 04:10:58;;;;;;;;;;;;;;;-140.72;100.00;52948.91;5020897;28;20013;-70
2023/04/18 04:13:23;;;;;;;;;;;;;;;-140.72;100.00;52977.31;5027989;28;19918;-70
2023/04/18 04:15:48;;;;;;;;;;;;;;;-140.72;100.00;52967.16;5028299;28;19925;-70
2023/04/18 04:18:14;;;;;;;;;;;;;;;-140.72;100.00;52989.50;5023310;28;19917;-70
2023/04/18 04:20:39;;;;;;;;;;;;;;;-140.72;100.00;52948.91;5030478;28;20344;-70
2023/04/18 04:23:05;;;;;;;;;;;;;;;-140.72;100.00;52936.72;5023395;28;20257;-71
2023/04/18 04:25:32;;;;;;;;;;;;;;;-140.72;100.00;52975.28;5015563;28;19918;-70
2023/04/18 04:28:00;;;;;;;;;;;;;;;-140.72;100.00;52934.69;5033259;28;19921;-70
2023/04/18 04:30:25;;;;;;;;;;;;;;;-140.72;100.00;52985.44;5034103;28;19917;-72
2023/04/18 04:32:51;;;;;;;;;;;;;;;-140.72;100.00;52944.84;5024755;28;19998;-71
2023/04/18 04:35:16;;;;;;;;;;;;;;;-140.72;100.00;52967.16;5053354;27;19918;-70
2023/04/18 04:37:42;;;;;;;;;;;;;;;-140.72;100.00;52952.97;5019205;28;19940;-70
2023/04/18 04:43:14;;;;;;;;;;;;;;;-140.72;100.00;52928.63;5043721;28;19965;-70
2023/04/18 04:45:40;;;;;;;;;;;;;;;-140.72;100.00;52942.81;5029030;28;19925;-71
2023/04/18 04:48:05;;;;;;;;;;;;;;;-140.72;100.00;52934.69;5015797;28;21537;-70
2023/04/18 04:50:35;;;;;;;;;;;;;;;-140.72;100.00;52936.72;5040858;28;19921;-70
2023/04/18 04:53:01;;;;;;;;;;;;;;;-140.72;100.00;52950.94;5026927;28;19917;-70
2023/04/18 04:55:26;;;;;;;;;;;;;;;-140.72;100.00;52963.13;5033341;28;19929;-71
2023/04/18 04:57:51;;;;;;;;;;;;;;;-140.72;100.00;52977.31;5029864;28;19929;-70
2023/04/18 05:00:19;;;;;;;;;;;;;;;-140.72;100.00;52973.25;5029327;28;19921;-70
2023/04/18 05:02:45;;;;;;;;;;;;;;;-140.72;100.00;52942.81;5022823;28;20061;-70
2023/04/18 05:05:10;;;;;;;;;;;;;;;-140.72;100.00;52995.59;5027746;28;20410;-70
2023/04/18 05:07:41;;;;;;;;;;;;;;;-140.72;100.00;52975.28;5033662;28;19917;-70
2023/04/18 05:10:06;;;;;;;;;;;;;;;-140.72;100.00;52944.84;5030365;28;19927;-70
2023/04/18 05:12:32;;;;;;;;;;;;;;;-140.72;100.00;52938.75;5022384;28;20350;-70
2023/04/18 05:14:57;;;;;;;;;;;;;;;-140.72;100.00;52950.94;5026921;28;19922;-70
2023/04/18 05:17:22;;;;;;;;;;;;;;;-140.72;100.00;52952.97;5038975;28;19916;-70
2023/04/18 05:19:48;;;;;;;;;;;;;;;-140.72;100.00;52930.66;5029623;28;19921;-70
2023/04/18 05:22:13;;;;;;;;;;;;;;;-140.72;100.00;52993.56;5022950;28;19917;-70
2023/04/18 05:24:38;;;;;;;;;;;;;;;-140.72;100.00;52950.94;5036723;28;19938;-70
2023/04/18 05:27:03;;;;;;;;;;;;;;;-140.72;100.00;52908.31;5031741;28;20286;-70
2023/04/18 05:29:29;;;;;;;;;;;;;;;-140.72;100.00;52965.16;5015939;28;20383;-70
2023/04/18 05:31:54;;;;;;;;;;;;;;;-140.72;100.00;52930.66;5027714;28;19972;-70
2023/04/18 05:34:19;;;;;;;;;;;;;;;-140.72;100.00;52922.53;5023333;28;20410;-71
2023/04/18 05:36:46;;;;;;;;;;;;;;;-140.72;100.00;52910.34;5039989;28;19925;-69
2023/04/18 05:39:11;;;;;;;;;;;;;;;-140.72;100.00;52922.53;5022813;28;19942;-69
2023/04/18 05:41:37;;;;;;;;;;;;;;;-140.72;100.00;52930.66;5032717;28;19921;-69
2023/04/18 05:44:02;;;;;;;;;;;;;;;-140.72;100.00;52898.16;5017410;28;19924;-70
2023/04/18 05:46:27;;;;;;;;;;;;;;;-140.72;100.00;52914.41;5028521;28;19965;-72
2023/04/18 05:48:52;;;;;;;;;;;;;;;-140.72;100.00;52900.19;5030380;28;20013;-72
2023/04/18 05:51:17;;;;;;;;;;;;;;;-140.72;100.00;52926.59;5029166;28;19917;-71
2023/04/18 05:53:43;;;;;;;;;;;;;;;-140.72;100.00;52934.69;5031403;28;19925;-72
2023/04/18 05:56:08;;;;;;;;;;;;;;;-140.72;100.00;52888.03;5028723;28;19929;-71
2023/04/18 05:58:33;;;;;;;;;;;;;;;-140.72;100.00;52896.16;5027750;28;19928;-69
2023/04/18 06:00:58;;;;;;;;;;;;;;;-140.72;100.00;52926.59;5024021;28;20425;-70
2023/04/18 06:03:40;;;;;;;;;;;;;;;-140.72;100.00;52922.53;5023593;28;20016;-70
2023/04/18 06:06:06;;;;;;;;;;;;;;;-140.72;100.00;52896.16;5032268;28;19968;-71
2023/04/18 06:08:31;;;;;;;;;;;;;;;-140.72;100.00;52922.53;5030072;28;19921;-70
2023/04/18 06:10:56;;;;;;;;;;;;;;;-140.72;100.00;52922.53;5031258;28;19917;-70
2023/04/18 06:13:22;;;;;;;;;;;;;;;-140.72;100.00;52883.97;5030396;28;20016;-70
2023/04/18 06:15:47;;;;;;;;;;;;;;;-140.72;100.00;52924.56;5032462;28;20007;-70
2023/04/18 06:18:12;;;;;;;;;;;;;;;-140.72;100.00;52898.16;5021789;28;19977;-70
2023/04/18 06:20:37;;;;;;;;;;;;;;;-140.72;100.00;52879.91;5031795;28;19924;-70
2023/04/18 06:23:03;;;;;;;;;;;;;;;-140.72;100.00;52877.88;5026000;28;19918;-70
2023/04/18 06:25:28;;;;;;;;;;;;;;;-140.72;100.00;52879.91;5031353;28;19924;-70
2023/04/18 06:27:53;;;;;;;;;;;;;;;-140.72;100.00;52908.31;5014772;28;19917;-70
2023/04/18 06:30:20;;;;;;;;;;;;;;;-140.72;100.00;52910.34;5025161;28;19917;-70
2023/04/18 06:32:46;;;;;;;;;;;;;;;-140.72;100.00;52906.28;5021084;28;20386;-70
2023/04/18 06:35:11;;;;;;;;;;;;;;;-140.72;100.00;52910.34;5015794;28;19921;-70
2023/04/18 06:37:36;;;;;;;;;;;;;;;-140.72;100.00;52914.41;5010993;28;20360;-70
2023/04/18 06:40:02;;;;;;;;;;;;;;;-140.72;100.00;52902.22;5030330;28;19917;-70
2023/04/18 06:42:27;;;;;;;;;;;;;;;-140.72;100.00;52886.00;5013202;28;19918;-72
2023/04/18 06:44:52;;;;;;;;;;;;;;;-140.72;100.00;52877.88;5021375;28;19913;-72
2023/04/18 06:47:18;;;;;;;;;;;;;;;-140.72;100.00;52873.81;5031664;28;19962;-71
2023/04/18 06:49:43;;;;;;;;;;;;;;;-140.72;100.00;52877.88;5026966;28;19967;-70
2023/04/18 06:52:08;;;;;;;;;;;;;;;-140.72;100.00;52847.44;5027556;28;19921;-70
2023/04/18 06:54:34;;;;;;;;;;;;;;;-140.72;100.00;52851.50;5024260;28;19913;-70
2023/04/18 06:57:01;;;;;;;;;;;;;;;-140.72;100.00;52857.59;5024883;28;19960;-70
2023/04/18 06:59:26;;;;;;;;;;;;;;;-140.72;100.00;52847.44;5021402;28;19918;-73
2023/04/18 07:01:51;;;;;;;;;;;;;;;-140.72;100.00;52845.41;5030883;28;19932;-71
2023/04/18 07:04:16;;;;;;;;;;;;;;;-140.72;100.00;52788.59;5026574;28;20291;-71
2023/04/18 07:06:41;;;;;;;;;;;;;;;-140.72;100.00;52833.22;5024278;28;20013;-73
2023/04/18 07:09:07;;;;;;;;;;;;;;;-140.72;100.00;52829.19;5027365;28;20005;-74
2023/04/18 07:11:32;;;;;;;;;;;;;;;-140.72;90.60;52817.00;5030032;28;19952;-74
2023/04/18 07:13:57;;;;;;;;;;;;;;;-140.72;89.83;52845.41;5031661;28;19924;-74
2023/04/18 07:16:22;;;;;;;;;;;;;;;-140.72;78.31;52865.69;5030107;28;19918;-75
2023/04/18 07:18:48;;;;;;;;;;;;;;;-140.72;69.03;52827.16;5033419;28;19921;-74
2023/04/18 07:21:13;;;;;;;;;;;;;;;-140.72;72.44;52812.94;5028100;28;20367;-73
2023/04/18 07:23:38;;;;;;;;;;;;;;;-140.72;68.66;52831.19;5027029;28;20290;-74
2023/04/18 07:26:04;;;;;;;;;;;;;;;-140.72;63.35;52855.56;5024423;28;20891;-74
2023/04/18 07:28:30;;;;;;;;;;;;;;;-140.72;64.14;52814.97;5032984;28;20420;-73
2023/04/18 07:30:55;;;;;;;;;;;;;;;-140.72;56.59;52817.00;5025081;28;19921;-74
2023/04/18 07:33:21;;;;;;;;;;;;;;;-140.72;46.41;52845.41;5031189;28;19973;-74
2023/04/18 07:35:46;;;;;;;;;;;;;;;-140.72;47.67;52772.34;5021339;28;19986;-74
2023/04/18 07:38:11;;;;;;;;;;;;;;;-140.72;37.07;52812.94;5031234;28;19921;-74
2023/04/18 07:40:37;;;;;;;;;;;;;;;-140.72;27.67;52802.78;5029939;28;20383;-73
2023/04/18 07:43:02;;;;;;;;;;;;;;;-140.72;22.52;52845.41;5028935;28;19924;-73
2023/04/18 07:45:27;;;;;;;;;;;;;;;-140.72;17.31;52780.47;5029854;28;19964;-73
2023/04/18 07:47:53;;;;;;;;;;;;;;;-140.72;26.13;52784.53;5020988;28;19924;-74
2023/04/18 07:50:18;;;;;;;;;;;;;;;-140.72;21.04;52780.47;5029665;28;19926;-74
2023/04/18 07:52:46;;;;;;;;;;;;;;;-140.72;27.07;52845.41;5031628;28;19981;-74
2023/04/18 07:55:11;;;;;;;;;;;;;;;-140.72;23.42;52859.63;5018178;28;19922;-73
2023/04/18 07:57:37;;;;;;;;;;;;;;;-140.72;32.80;52833.22;5023450;28;19925;-73
2023/04/18 08:00:03;;;;;;;;;;;;;;;-140.72;37.28;52796.72;5020419;28;19917;-70
2023/04/18 08:02:29;;;;;;;;;;;;;;;-140.72;38.10;52817.00;5009788;28;20360;-70
2023/04/18 08:04:54;;;;;;;;;;;;;;;-140.72;42.28;52772.34;5025785;28;19928;-70
2023/04/18 08:07:19;;;;;;;;;;;;;;;-140.72;35.70;52845.41;5032282;28;19950;-69
2023/04/18 08:09:45;;;;;;;;;;;;;;;-140.72;40.27;52833.22;5034978;28;19962;-69
2023/04/18 08:12:10;;;;;;;;;;;;;;;-140.72;39.78;52819.03;5028823;28;20004;-69
2023/04/18 08:14:35;;;;;;;;;;;;;;;-140.72;42.20;52837.28;5029968;28;19917;-69
2023/04/18 08:17:01;;;;;;;;;;;;;;;-140.72;40.31;52812.94;5029627;28;20058;-69
2023/04/18 08:19:26;;;;;;;;;;;;;;;-140.72;33.70;52821.06;5026710;28;20022;-69
2023/04/18 08:21:51;;;;;;;;;;;;;;;-140.72;20.63;52784.53;5030372;28;19922;-70
2023/04/18 08:24:16;;;;;;;;;;;;;;;-140.72;4.21;52804.81;5027647;28;19918;-70
2023/04/18 08:26:41;;;;;;;;;;;;;;;-140.72;0.00;52796.72;5020162;28;19917;-70
2023/04/18 08:29:07;;;;;;;;;;;;;;;-140.72;0.00;52739.88;5030240;28;20330;-69
2023/04/18 08:31:32;;;;;;;;;;;;;;;-140.72;0.00;52812.94;5030145;28;19917;-70
2023/04/18 08:33:57;;;;;;;;;;;;;;;-140.72;0.00;52788.59;5010800;28;20009;-70
2023/04/18 08:36:23;;;;;;;;;;;;;;;-140.72;0.00;52764.25;5024002;28;20287;-71
2023/04/18 08:38:49;;;;;;;;;;;;;;;-140.72;0.00;52772.34;5023918;28;19921;-71
2023/04/18 08:41:19;;;;;;;;;;;;;;;-140.72;0.00;52731.75;5011514;28;19918;-71
2023/04/18 08:43:46;;;;;;;;;;;;;;;-140.72;0.00;52693.22;5029162;28;19961;-71
2023/04/18 08:46:11;;;;;;;;;;;;;;;-140.72;0.00;52723.66;5028818;28;20283;-70
2023/04/18 08:48:37;;;;;;;;;;;;;;;-140.72;0.00;52721.63;5032104;28;19921;-71
2023/04/18 08:51:03;;;;;;;;;;;;;;;-140.72;0.00;52725.69;5031282;28;19921;-70
2023/04/18 08:53:31;;;;;;;;;;;;;;;-140.72;0.00;52750.03;5030040;28;20041;-70
2023/04/18 08:55:56;;;;;;;;;;;;;;;-140.72;0.00;52786.56;5027595;28;19924;-70
2023/04/18 08:58:22;;;;;;;;;;;;;;;-140.72;0.00;52778.44;5028226;28;20350;-70
2023/04/18 09:00:51;;;;;;;;;;;;;;;-140.72;0.00;52760.19;5023388;28;20020;-71
2023/04/18 09:03:36;;;;;;;;;;;;;;;-140.72;0.00;52737.84;5023935;28;19918;-70
2023/04/18 09:06:07;;;;;;;;;;;;;;;-140.72;0.00;52693.22;5019881;28;20383;-70
2023/04/18 09:08:34;;;;;;;;;;;;;;;-140.72;0.00;52670.88;5027101;28;20437;-70
2023/04/18 09:11:19;;;;;;;;;;;;;;;-140.72;0.00;52739.88;5019735;28;19941;-70
2023/04/18 09:13:45;;;;;;;;;;;;;;;-140.72;0.00;52743.94;5013253;28;20341;-70
2023/04/18 09:16:12;;;;;;;;;;;;;;;-140.72;0.00;52727.72;5024811;28;19940;-70
2023/04/18 09:18:37;;;;;;;;;;;;;;;-140.72;0.00;52731.75;5013938;28;20332;-70
2023/04/18 09:21:17;;;;;;;;;;;;;;;-140.72;0.00;52717.56;5026501;28;19921;-69
2023/04/18 09:23:45;;;;;;;;;;;;;;;-140.72;0.00;52689.16;5028436;28;19918;-70
2023/04/18 09:26:10;;;;;;;;;;;;;;;-140.72;0.00;52571.47;5031819;28;20035;-70
2023/04/18 09:28:36;;;;;;;;;;;;;;;-140.72;0.00;52496.38;5025373;28;19957;-71
2023/04/18 09:31:10;;;;;;;;;;;;;;;-140.72;0.00;52593.78;5023917;28;20012;-71
2023/04/18 09:33:36;;;;;;;;;;;;;;;-140.72;0.00;52565.38;5013028;28;19957;-72
2023/04/18 09:36:18;;;;;;;;;;;;;;;-140.72;0.00;52565.38;5020286;28;19922;-72
2023/04/18 09:38:43;;;;;;;;;;;;;;;-140.72;0.00;52650.59;5038766;28;19924;-71
2023/04/18 09:41:09;;;;;;;;;;;;;;;-140.72;0.00;52650.59;5026115;28;19917;-72
2023/04/18 09:43:35;;;;;;;;;;;;;;;-140.72;0.00;52587.69;5024867;28;19924;-71
2023/04/18 09:46:02;;;;;;;;;;;;;;;-140.72;0.00;52642.47;5017700;28;20283;-70
2023/04/18 09:48:27;;;;;;;;;;;;;;;-140.72;0.00;52612.03;5021845;28;19918;-71
2023/04/18 09:50:53;;;;;;;;;;;;;;;-140.72;0.00;52644.50;5026897;28;19924;-72
2023/04/18 09:53:19;;;;;;;;;;;;;;;-140.72;0.00;52626.25;5015137;28;19918;-71
2023/04/18 09:55:45;;;;;;;;;;;;;;;-140.72;0.00;52670.88;5016342;28;20363;-71
2023/04/18 09:58:11;;;;;;;;;;;;;;;-140.72;0.00;52689.16;5013859;28;19926;-70
2023/04/18 10:00:37;;;;;;;;;;;;;;;-140.72;0.00;52711.47;5012636;28;19918;-70
2023/04/18 10:03:07;;;;;;;;;;;;;;;-140.72;0.00;52713.50;5019523;28;19928;-71
2023/04/18 10:05:33;;;;;;;;;;;;;;;-140.72;0.00;52672.91;5032807;28;19973;-71
2023/04/18 10:07:59;;;;;;;;;;;;;;;-140.72;0.00;52674.94;5037369;28;19996;-71
2023/04/18 10:10:24;;;;;;;;;;;;;;;-140.72;0.00;52676.97;5032860;28;19966;-71
2023/04/18 10:12:52;;;;;;;;;;;;;;;-140.72;0.00;52705.38;5022197;28;19918;-71
2023/04/18 10:15:19;;;;;;;;;;;;;;;-140.72;0.00;52679.00;5023177;28;19924;-71
2023/04/18 10:17:51;;;;;;;;;;;;;;;-140.72;0.00;52646.53;5014372;28;19970;-71
2023/04/18 10:20:19;;;;;;;;;;;;;;;-140.72;0.00;52672.91;5011410;28;19960;-71
2023/04/18 10:22:44;;;;;;;;;;;;;;;-140.72;0.00;52632.34;5028720;27;19921;-71
2023/04/18 10:25:10;;;;;;;;;;;;;;;-140.72;0.00;52630.31;5031666;28;20409;-70
2023/04/18 10:27:47;;;;;;;;;;;;;;;-140.72;0.00;52461.88;5019387;28;20383;-70
2023/04/18 10:30:15;;;;;;;;;;;;;;;-140.72;0.00;52557.25;5020308;28;20012;-70
2023/04/18 10:32:41;;;;;;;;;;;;;;;-140.72;0.00;52591.75;5022297;28;19969;-71
2023/04/18 10:35:06;;;;;;;;;;;;;;;-140.72;0.00;52583.63;5027862;28;20324;-70
2023/04/18 10:37:32;;;;;;;;;;;;;;;-140.72;0.00;52553.19;5025928;28;20500;-71
2023/04/18 10:39:59;;;;;;;;;;;;;;;-140.72;0.00;52563.34;5025875;28;20390;-71
2023/04/18 10:42:43;;;;;;;;;;;;;;;-140.72;0.00;52583.63;5025540;28;20352;-72
2023/04/18 10:45:22;;;;;;;;;;;;;;;-140.72;0.00;52595.81;5021302;28;19914;-71
2023/04/18 10:47:47;;;;;;;;;;;;;;;-140.72;0.00;52624.22;5025297;28;19918;-70
2023/04/18 10:50:13;;;;;;;;;;;;;;;-140.72;0.00;52610.00;5023239;28;19917;-71
2023/04/18 10:52:38;;;;;;;;;;;;;;;-140.72;0.00;52597.84;5025470;28;19924;-70
2023/04/18 10:55:08;;;;;;;;;;;;;;;-140.72;0.00;52581.59;5024791;28;20058;-70
2023/04/18 10:57:40;;;;;;;;;;;;;;;-140.72;0.00;52610.00;5017607;28;19921;-70
2023/04/18 11:00:09;;;;;;;;;;;;;;;-140.72;0.00;52656.69;5026313;28;19970;-70
2023/04/18 11:02:34;;;;;;;;;;;;;;;-140.72;0.00;52618.13;5026333;28;20089;-69
2023/04/18 11:05:04;;;;;;;;;;;;;;;-140.72;0.00;52642.47;5020692;28;19965;-70
2023/04/18 11:07:39;;;;;;;;;;;;;;;-140.72;0.00;52648.56;5027867;28;19917;-69
2023/04/18 11:10:05;;;;;;;;;;;;;;;-140.72;0.00;52614.06;5023031;28;19917;-70
2023/04/18 11:12:31;;;;;;;;;;;;;;;-140.72;0.00;52662.78;5028469;28;20410;-70
2023/04/18 11:14:57;;;;;;;;;;;;;;;-140.72;0.00;52632.34;5021521;28;19917;-69
2023/04/18 11:17:27;;;;;;;;;;;;;;;-140.72;0.00;52709.44;5026094;28;20008;-70
2023/04/18 11:20:00;;;;;;;;;;;;;;;-140.72;0.00;52644.50;5031302;28;19977;-70
2023/04/18 11:22:25;;;;;;;;;;;;;;;-140.72;0.00;52638.41;5035440;28;20290;-70
2023/04/18 11:24:51;;;;;;;;;;;;;;;-140.72;0.00;52652.63;5011701;28;19928;-70
2023/04/18 11:27:17;;;;;;;;;;;;;;;-140.72;0.00;52646.53;5024946;28;19917;-70
2023/04/18 11:29:42;;;;;;;;;;;;;;;-140.72;0.00;52646.53;5026864;28;19918;-70
2023/04/18 11:32:08;;;;;;;;;;;;;;;-140.72;0.00;52589.72;5031240;28;20012;-70
2023/04/18 11:34:34;;;;;;;;;;;;;;;-140.72;0.00;52650.59;5032025;28;19970;-70
2023/04/18 11:36:59;;;;;;;;;;;;;;;-140.72;0.00;52630.31;5018520;28;19962;-70
2023/04/18 11:39:25;;;;;;;;;;;;;;;-140.72;0.00;52622.19;5020004;28;19917;-69
2023/04/18 11:41:50;;;;;;;;;;;;;;;-140.72;0.00;52648.56;5025046;28;19918;-70
2023/04/18 11:44:22;;;;;;;;;;;;;;;-140.72;0.00;52620.16;5012348;28;19918;-70
2023/04/18 11:46:49;;;;;;;;;;;;;;;-140.72;0.00;52648.56;5021142;28;19917;-70
2023/04/18 11:49:27;;;;;;;;;;;;;;;-140.72;0.00;52616.09;5022876;28;19917;-70
2023/04/18 11:51:52;;;;;;;;;;;;;;;-140.72;0.00;52583.63;5030960;28;20387;-70
2023/04/18 11:54:37;;;;;;;;;;;;;;;-140.72;0.00;52595.81;5026686;28;20009;-70
2023/04/18 11:57:02;;;;;;;;;;;;;;;-140.72;0.00;52563.34;5035007;28;20049;-70
2023/04/18 11:59:27;;;;;;;;;;;;;;;-140.72;0.00;52591.75;5036318;28;20401;-70
2023/04/18 12:02:00;;;;;;;;;;;;;;;-140.72;0.00;52569.44;5025678;28;20031;-70
2023/04/18 12:04:25;;;;;;;;;;;;;;;-140.72;0.00;52607.97;5030973;28;19969;-70
2023/04/18 12:06:52;;;;;;;;;;;;;;;-140.72;0.00;52551.16;5035321;28;20467;-70
2023/04/18 12:09:18;;;;;;;;;;;;;;;-140.72;0.00;52585.66;5030380;28;19917;-70
2023/04/18 12:11:43;;;;;;;;;;;;;;;-140.72;0.00;52565.38;5029237;28;20008;-69
2023/04/18 12:14:20;;;;;;;;;;;;;;;-140.72;0.00;52587.69;5028550;28;19917;-70
2023/04/18 12:16:47;;;;;;;;;;;;;;;-140.72;0.00;52583.63;5025860;28;19917;-70
2023/04/18 12:19:13;;;;;;;;;;;;;;;-140.72;0.00;52575.50;5028936;28;19918;-70
2023/04/18 12:21:52;;;;;;;;;;;;;;;-140.72;0.00;52605.94;5018627;28;19925;-71
2023/04/18 12:24:18;;;;;;;;;;;;;;;-140.72;0.00;52622.19;5027695;28;19917;-71
2023/04/18 12:26:47;;;;;;;;;;;;;;;-140.72;0.00;52650.59;5026506;28;20012;-70
2023/04/18 12:29:12;;;;;;;;;;;;;;;-140.72;0.00;52634.38;5032020;28;20410;-71